Hlavní strana
METAR-TAF:

METAR-TAF

Letiště :

Luleå, Švédsko

zeměpisná šířka: 65-33N, zeměpisná délka: 022-08E, výška: 17 m

Aktuální stav počasí

Zpráva byla vytvořena před 15 minutami, v 21:20 UTC
Východojihovýchodní vítr 9 kt
Teplota 1°C
Vlhkost vzduchu 93%
Tlak 1012 hPa
Viditelnost 10 km a více
Zataženo ve výšce 400 ft

METAR: ESPA 122120Z 11009KT 9999 OVC004 01/00 Q1012

Čas: 22:35 (21:35 UTC)

Předpověď počasí

Zpráva byla vytvořena před 4 hodinami a 5 minutami, v 17:30 UTC
Předpověď platná od 12 v 18 UTC do 12 v 24 UTC
Jihovýchodní vítr 10 kt
Viditelnost 10 km a více
Zataženo ve výšce 1500 ft
(slabý) sněhová zrna, slabé sněžení
Dočasný
od 12 v 18 UTC do 12 v 21 UTC
Viditelnost: 1200 m
Oblačno až skoro zataženo ve výšce 300 ft
sníh
Dočasný
od 12 v 21 UTC do 12 v 24 UTC
Viditelnost: 1200 m
Oblačno až skoro zataženo ve výšce 300 ft
sníh, déšť

TAF: ESPA 121730Z 1218/1224 13010KT 9999 -SG -SN OVC015 TEMPO 1218/1221 1200 SN BKN003 TEMPO 1221/1224 1200 SNRA BKN003

Stav a předpovědi počasí z více než 4 000 letišť (zprávy METAR a TAF).

Červené a žluté tečky na mapě představují dostupné meteorologické stanice.

Když kurzor umístíte na tečku, zobrazí se název stanice.

Pak kliknutím zobrazíte stav a předpověď počasí.

Chcete-li změnit mapu, kliknutím na zelené tlačítko se znaménkem +mapu přiblížíte, kliknutím na zelené tlačítko se znaménkem – mapu oddálíte a kliknutím na zelené šipky přejdete na sousední mapy.


METAR-TAF: